sensor_id;sensor_type;location;lat;lon;timestamp;P1;durP1;ratioP1;P2;durP2;ratioP2
10557;SDS011;5327;47.238;-2.304;2023-02-15T00:01:19;21.23;;;15.13;;
10557;SDS011;5327;47.238;-2.304;2023-02-15T00:03:47;15.40;;;13.07;;
10557;SDS011;5327;47.238;-2.304;2023-02-15T00:06:13;18.10;;;13.20;;
10557;SDS011;5327;47.238;-2.304;2023-02-15T00:08:39;17.90;;;13.70;;
10557;SDS011;5327;47.238;-2.304;2023-02-15T00:11:06;16.57;;;13.40;;
10557;SDS011;5327;47.238;-2.304;2023-02-15T00:13:33;15.17;;;13.57;;
10557;SDS011;5327;47.238;-2.304;2023-02-15T00:16:04;15.80;;;12.73;;
10557;SDS011;5327;47.238;-2.304;2023-02-15T00:18:30;15.90;;;13.40;;
10557;SDS011;5327;47.238;-2.304;2023-02-15T00:20:57;16.13;;;12.47;;
10557;SDS011;5327;47.238;-2.304;2023-02-15T00:23:24;16.40;;;13.17;;
10557;SDS011;5327;47.238;-2.304;2023-02-15T00:25:52;17.07;;;12.77;;
10557;SDS011;5327;47.238;-2.304;2023-02-15T00:28:20;17.23;;;13.90;;
10557;SDS011;5327;47.238;-2.304;2023-02-15T00:30:46;19.03;;;13.90;;
10557;SDS011;5327;47.238;-2.304;2023-02-15T00:33:12;20.73;;;14.67;;
10557;SDS011;5327;47.238;-2.304;2023-02-15T00:35:38;18.93;;;15.40;;
10557;SDS011;5327;47.238;-2.304;2023-02-15T00:38:04;18.53;;;14.13;;
10557;SDS011;5327;47.238;-2.304;2023-02-15T00:40:30;17.10;;;14.17;;
10557;SDS011;5327;47.238;-2.304;2023-02-15T00:42:57;18.97;;;15.20;;
10557;SDS011;5327;47.238;-2.304;2023-02-15T00:45:23;17.57;;;13.87;;
10557;SDS011;5327;47.238;-2.304;2023-02-15T00:47:51;19.03;;;13.67;;
10557;SDS011;5327;47.238;-2.304;2023-02-15T00:50:17;16.40;;;13.00;;
10557;SDS011;5327;47.238;-2.304;2023-02-15T00:52:43;18.63;;;14.60;;
10557;SDS011;5327;47.238;-2.304;2023-02-15T00:55:09;17.73;;;13.60;;
10557;SDS011;5327;47.238;-2.304;2023-02-15T00:57:35;27.43;;;14.13;;
10557;SDS011;5327;47.238;-2.304;2023-02-15T01:00:01;17.73;;;14.13;;
10557;SDS011;5327;47.238;-2.304;2023-02-15T01:02:27;16.93;;;13.20;;
10557;SDS011;5327;47.238;-2.304;2023-02-15T01:04:53;16.77;;;14.07;;
10557;SDS011;5327;47.238;-2.304;2023-02-15T01:07:19;20.53;;;13.10;;
10557;SDS011;5327;47.238;-2.304;2023-02-15T01:09:45;18.30;;;13.90;;
10557;SDS011;5327;47.238;-2.304;2023-02-15T01:12:11;17.00;;;13.67;;
10557;SDS011;5327;47.238;-2.304;2023-02-15T01:14:37;23.07;;;14.10;;
10557;SDS011;5327;47.238;-2.304;2023-02-15T01:17:03;14.17;;;12.63;;
10557;SDS011;5327;47.238;-2.304;2023-02-15T01:19:29;18.73;;;14.20;;
10557;SDS011;5327;47.238;-2.304;2023-02-15T01:21:55;18.63;;;14.63;;
10557;SDS011;5327;47.238;-2.304;2023-02-15T01:24:22;19.47;;;14.50;;
10557;SDS011;5327;47.238;-2.304;2023-02-15T01:26:48;19.80;;;15.10;;
10557;SDS011;5327;47.238;-2.304;2023-02-15T01:29:14;17.70;;;13.40;;
10557;SDS011;5327;47.238;-2.304;2023-02-15T01:31:40;18.70;;;16.07;;
10557;SDS011;5327;47.238;-2.304;2023-02-15T01:34:06;20.03;;;14.50;;
10557;SDS011;5327;47.238;-2.304;2023-02-15T01:36:33;17.67;;;14.83;;
10557;SDS011;5327;47.238;-2.304;2023-02-15T01:39:00;22.20;;;16.00;;
10557;SDS011;5327;47.238;-2.304;2023-02-15T01:41:26;20.13;;;15.43;;
10557;SDS011;5327;47.238;-2.304;2023-02-15T01:46:19;19.97;;;15.00;;
10557;SDS011;5327;47.238;-2.304;2023-02-15T01:48:49;18.17;;;14.47;;
10557;SDS011;5327;47.238;-2.304;2023-02-15T01:51:18;20.40;;;14.93;;
10557;SDS011;5327;47.238;-2.304;2023-02-15T01:53:50;22.53;;;14.90;;
10557;SDS011;5327;47.238;-2.304;2023-02-15T01:56:27;17.93;;;14.57;;
10557;SDS011;5327;47.238;-2.304;2023-02-15T01:58:54;18.57;;;15.00;;
10557;SDS011;5327;47.238;-2.304;2023-02-15T02:01:23;16.33;;;14.63;;
10557;SDS011;5327;47.238;-2.304;2023-02-15T02:06:23;18.20;;;13.87;;
10557;SDS011;5327;47.238;-2.304;2023-02-15T02:08:49;17.40;;;14.50;;
10557;SDS011;5327;47.238;-2.304;2023-02-15T02:11:15;21.60;;;14.60;;
10557;SDS011;5327;47.238;-2.304;2023-02-15T02:13:42;19.27;;;15.00;;
10557;SDS011;5327;47.238;-2.304;2023-02-15T02:16:20;22.23;;;14.53;;
10557;SDS011;5327;47.238;-2.304;2023-02-15T02:23:58;19.40;;;14.33;;
10557;SDS011;5327;47.238;-2.304;2023-02-15T02:36:58;18.17;;;13.90;;
10557;SDS011;5327;47.238;-2.304;2023-02-15T02:39:42;20.73;;;15.13;;
10557;SDS011;5327;47.238;-2.304;2023-02-15T02:44:43;21.63;;;15.17;;
10557;SDS011;5327;47.238;-2.304;2023-02-15T02:47:12;20.23;;;15.87;;
10557;SDS011;5327;47.238;-2.304;2023-02-15T02:49:40;23.43;;;16.03;;
10557;SDS011;5327;47.238;-2.304;2023-02-15T02:52:53;21.53;;;16.10;;
10557;SDS011;5327;47.238;-2.304;2023-02-15T02:54:53;30.10;;;17.70;;
10557;SDS011;5327;47.238;-2.304;2023-02-15T02:57:20;20.63;;;16.50;;
10557;SDS011;5327;47.238;-2.304;2023-02-15T02:59:48;20.47;;;15.80;;
10557;SDS011;5327;47.238;-2.304;2023-02-15T03:02:20;23.13;;;17.50;;
10557;SDS011;5327;47.238;-2.304;2023-02-15T03:04:49;21.57;;;16.20;;
10557;SDS011;5327;47.238;-2.304;2023-02-15T03:07:23;23.93;;;17.50;;
10557;SDS011;5327;47.238;-2.304;2023-02-15T03:09:54;19.60;;;16.30;;
10557;SDS011;5327;47.238;-2.304;2023-02-15T03:14:49;23.70;;;15.50;;
10557;SDS011;5327;47.238;-2.304;2023-02-15T03:17:17;17.83;;;15.90;;
10557;SDS011;5327;47.238;-2.304;2023-02-15T03:19:44;20.80;;;17.00;;
10557;SDS011;5327;47.238;-2.304;2023-02-15T03:22:21;19.83;;;16.10;;
10557;SDS011;5327;47.238;-2.304;2023-02-15T03:24:51;26.03;;;19.17;;
10557;SDS011;5327;47.238;-2.304;2023-02-15T03:27:20;20.53;;;15.83;;
10557;SDS011;5327;47.238;-2.304;2023-02-15T03:29:58;22.80;;;17.23;;
10557;SDS011;5327;47.238;-2.304;2023-02-15T03:32:25;25.37;;;18.17;;
10557;SDS011;5327;47.238;-2.304;2023-02-15T03:34:53;18.93;;;16.40;;
10557;SDS011;5327;47.238;-2.304;2023-02-15T03:37:25;22.93;;;17.43;;
10557;SDS011;5327;47.238;-2.304;2023-02-15T03:39:58;21.33;;;15.93;;
10557;SDS011;5327;47.238;-2.304;2023-02-15T03:42:45;20.70;;;16.30;;
10557;SDS011;5327;47.238;-2.304;2023-02-15T03:45:15;18.33;;;15.17;;
10557;SDS011;5327;47.238;-2.304;2023-02-15T03:47:44;19.97;;;15.87;;
10557;SDS011;5327;47.238;-2.304;2023-02-15T03:50:15;18.73;;;14.07;;
10557;SDS011;5327;47.238;-2.304;2023-02-15T03:53:02;20.93;;;17.47;;
10557;SDS011;5327;47.238;-2.304;2023-02-15T03:55:33;25.80;;;17.17;;
10557;SDS011;5327;47.238;-2.304;2023-02-15T03:57:59;21.97;;;15.70;;
10557;SDS011;5327;47.238;-2.304;2023-02-15T04:00:47;19.50;;;14.70;;
10557;SDS011;5327;47.238;-2.304;2023-02-15T04:03:39;20.03;;;14.97;;
10557;SDS011;5327;47.238;-2.304;2023-02-15T04:06:06;21.00;;;14.90;;
10557;SDS011;5327;47.238;-2.304;2023-02-15T04:08:32;17.13;;;14.77;;
10557;SDS011;5327;47.238;-2.304;2023-02-15T04:11:31;18.50;;;14.93;;
10557;SDS011;5327;47.238;-2.304;2023-02-15T04:13:57;21.57;;;15.80;;
10557;SDS011;5327;47.238;-2.304;2023-02-15T04:16:23;23.97;;;16.90;;
10557;SDS011;5327;47.238;-2.304;2023-02-15T04:18:49;18.63;;;16.53;;
10557;SDS011;5327;47.238;-2.304;2023-02-15T04:21:34;23.70;;;17.03;;
10557;SDS011;5327;47.238;-2.304;2023-02-15T04:24:19;21.30;;;16.00;;
10557;SDS011;5327;47.238;-2.304;2023-02-15T04:27:05;18.70;;;14.70;;
10557;SDS011;5327;47.238;-2.304;2023-02-15T04:29:31;22.53;;;16.47;;
10557;SDS011;5327;47.238;-2.304;2023-02-15T04:31:58;25.53;;;17.27;;
10557;SDS011;5327;47.238;-2.304;2023-02-15T04:34:24;21.27;;;16.33;;
10557;SDS011;5327;47.238;-2.304;2023-02-15T04:36:51;24.07;;;16.10;;
10557;SDS011;5327;47.238;-2.304;2023-02-15T04:39:17;22.90;;;15.80;;
10557;SDS011;5327;47.238;-2.304;2023-02-15T04:41:44;19.03;;;15.50;;
10557;SDS011;5327;47.238;-2.304;2023-02-15T04:44:10;20.63;;;16.63;;
10557;SDS011;5327;47.238;-2.304;2023-02-15T04:46:36;22.57;;;16.03;;
10557;SDS011;5327;47.238;-2.304;2023-02-15T04:49:02;17.67;;;15.03;;
10557;SDS011;5327;47.238;-2.304;2023-02-15T04:51:29;18.60;;;15.37;;
10557;SDS011;5327;47.238;-2.304;2023-02-15T04:53:55;22.60;;;14.40;;
10557;SDS011;5327;47.238;-2.304;2023-02-15T04:56:21;19.63;;;15.20;;
10557;SDS011;5327;47.238;-2.304;2023-02-15T04:58:47;18.83;;;15.40;;
10557;SDS011;5327;47.238;-2.304;2023-02-15T05:01:14;17.37;;;14.70;;
10557;SDS011;5327;47.238;-2.304;2023-02-15T05:03:40;18.90;;;15.27;;
10557;SDS011;5327;47.238;-2.304;2023-02-15T05:06:06;21.10;;;15.47;;
10557;SDS011;5327;47.238;-2.304;2023-02-15T05:08:32;22.17;;;15.70;;
10557;SDS011;5327;47.238;-2.304;2023-02-15T05:11:01;16.93;;;13.80;;
10557;SDS011;5327;47.238;-2.304;2023-02-15T05:13:28;15.57;;;13.33;;
10557;SDS011;5327;47.238;-2.304;2023-02-15T05:15:54;15.23;;;13.33;;
10557;SDS011;5327;47.238;-2.304;2023-02-15T05:18:20;18.97;;;13.50;;
10557;SDS011;5327;47.238;-2.304;2023-02-15T05:20:47;20.27;;;15.60;;
10557;SDS011;5327;47.238;-2.304;2023-02-15T05:23:13;21.47;;;15.23;;
10557;SDS011;5327;47.238;-2.304;2023-02-15T05:25:39;20.23;;;15.77;;
10557;SDS011;5327;47.238;-2.304;2023-02-15T05:28:25;18.43;;;15.07;;
10557;SDS011;5327;47.238;-2.304;2023-02-15T05:31:00;15.47;;;13.67;;
10557;SDS011;5327;47.238;-2.304;2023-02-15T05:33:27;20.10;;;15.63;;
10557;SDS011;5327;47.238;-2.304;2023-02-15T05:35:53;20.47;;;15.83;;
10557;SDS011;5327;47.238;-2.304;2023-02-15T05:38:19;22.47;;;15.60;;
10557;SDS011;5327;47.238;-2.304;2023-02-15T05:40:45;18.43;;;15.27;;
10557;SDS011;5327;47.238;-2.304;2023-02-15T05:43:11;17.13;;;15.23;;
10557;SDS011;5327;47.238;-2.304;2023-02-15T05:45:37;21.80;;;16.57;;
10557;SDS011;5327;47.238;-2.304;2023-02-15T05:48:05;19.70;;;15.30;;
10557;SDS011;5327;47.238;-2.304;2023-02-15T05:50:31;20.57;;;15.60;;
10557;SDS011;5327;47.238;-2.304;2023-02-15T05:52:57;17.27;;;14.03;;
10557;SDS011;5327;47.238;-2.304;2023-02-15T05:55:23;21.20;;;16.47;;
10557;SDS011;5327;47.238;-2.304;2023-02-15T05:57:49;18.73;;;15.63;;
10557;SDS011;5327;47.238;-2.304;2023-02-15T06:00:15;21.00;;;14.77;;
10557;SDS011;5327;47.238;-2.304;2023-02-15T06:02:42;18.97;;;15.50;;
10557;SDS011;5327;47.238;-2.304;2023-02-15T06:05:08;20.10;;;15.57;;
10557;SDS011;5327;47.238;-2.304;2023-02-15T06:07:34;17.50;;;15.30;;
10557;SDS011;5327;47.238;-2.304;2023-02-15T06:10:00;22.77;;;17.33;;
10557;SDS011;5327;47.238;-2.304;2023-02-15T06:12:26;20.83;;;16.23;;
10557;SDS011;5327;47.238;-2.304;2023-02-15T06:14:52;17.93;;;14.70;;
10557;SDS011;5327;47.238;-2.304;2023-02-15T06:17:18;24.77;;;16.80;;
10557;SDS011;5327;47.238;-2.304;2023-02-15T06:19:44;21.50;;;18.00;;
10557;SDS011;5327;47.238;-2.304;2023-02-15T06:22:10;21.50;;;16.57;;
10557;SDS011;5327;47.238;-2.304;2023-02-15T06:24:38;20.73;;;16.17;;
10557;SDS011;5327;47.238;-2.304;2023-02-15T06:27:05;19.60;;;16.63;;
10557;SDS011;5327;47.238;-2.304;2023-02-15T06:29:31;21.73;;;16.47;;
10557;SDS011;5327;47.238;-2.304;2023-02-15T06:31:57;22.60;;;16.47;;
10557;SDS011;5327;47.238;-2.304;2023-02-15T06:34:23;24.77;;;17.10;;
10557;SDS011;5327;47.238;-2.304;2023-02-15T06:36:49;19.40;;;15.53;;
10557;SDS011;5327;47.238;-2.304;2023-02-15T06:39:15;21.77;;;16.30;;
10557;SDS011;5327;47.238;-2.304;2023-02-15T06:41:41;23.93;;;16.57;;
10557;SDS011;5327;47.238;-2.304;2023-02-15T06:44:07;24.53;;;16.30;;
10557;SDS011;5327;47.238;-2.304;2023-02-15T06:46:33;22.80;;;15.20;;
10557;SDS011;5327;47.238;-2.304;2023-02-15T06:48:59;21.97;;;16.23;;
10557;SDS011;5327;47.238;-2.304;2023-02-15T06:51:25;21.70;;;16.83;;
10557;SDS011;5327;47.238;-2.304;2023-02-15T06:53:51;22.23;;;15.97;;
10557;SDS011;5327;47.238;-2.304;2023-02-15T06:56:17;23.20;;;17.57;;
10557;SDS011;5327;47.238;-2.304;2023-02-15T06:58:43;21.87;;;17.03;;
10557;SDS011;5327;47.238;-2.304;2023-02-15T07:01:14;19.37;;;14.93;;
10557;SDS011;5327;47.238;-2.304;2023-02-15T07:03:40;21.90;;;16.57;;
10557;SDS011;5327;47.238;-2.304;2023-02-15T07:06:06;26.23;;;16.70;;
10557;SDS011;5327;47.238;-2.304;2023-02-15T07:08:34;23.40;;;17.10;;
10557;SDS011;5327;47.238;-2.304;2023-02-15T07:11:00;22.03;;;16.63;;
10557;SDS011;5327;47.238;-2.304;2023-02-15T07:13:46;22.87;;;17.50;;
10557;SDS011;5327;47.238;-2.304;2023-02-15T07:16:12;19.27;;;15.37;;
10557;SDS011;5327;47.238;-2.304;2023-02-15T07:18:39;30.10;;;17.37;;
10557;SDS011;5327;47.238;-2.304;2023-02-15T07:21:05;20.90;;;15.77;;
10557;SDS011;5327;47.238;-2.304;2023-02-15T07:23:34;23.07;;;15.23;;
10557;SDS011;5327;47.238;-2.304;2023-02-15T07:26:00;33.53;;;20.13;;
10557;SDS011;5327;47.238;-2.304;2023-02-15T07:28:27;22.40;;;16.70;;
10557;SDS011;5327;47.238;-2.304;2023-02-15T07:30:53;24.50;;;17.70;;
10557;SDS011;5327;47.238;-2.304;2023-02-15T07:33:19;29.03;;;16.63;;
10557;SDS011;5327;47.238;-2.304;2023-02-15T07:35:49;26.17;;;19.30;;
10557;SDS011;5327;47.238;-2.304;2023-02-15T07:38:15;25.33;;;18.03;;
10557;SDS011;5327;47.238;-2.304;2023-02-15T07:40:42;21.10;;;17.50;;
10557;SDS011;5327;47.238;-2.304;2023-02-15T07:43:08;27.00;;;17.80;;
10557;SDS011;5327;47.238;-2.304;2023-02-15T07:45:34;26.50;;;18.30;;
10557;SDS011;5327;47.238;-2.304;2023-02-15T07:48:00;24.57;;;17.20;;
10557;SDS011;5327;47.238;-2.304;2023-02-15T07:50:27;22.53;;;17.00;;
10557;SDS011;5327;47.238;-2.304;2023-02-15T07:52:53;25.33;;;17.90;;
10557;SDS011;5327;47.238;-2.304;2023-02-15T07:55:19;25.73;;;16.90;;
10557;SDS011;5327;47.238;-2.304;2023-02-15T07:57:46;22.73;;;15.80;;
10557;SDS011;5327;47.238;-2.304;2023-02-15T08:00:13;21.47;;;16.83;;
10557;SDS011;5327;47.238;-2.304;2023-02-15T08:02:39;25.83;;;17.00;;
10557;SDS011;5327;47.238;-2.304;2023-02-15T08:05:06;22.53;;;17.13;;
10557;SDS011;5327;47.238;-2.304;2023-02-15T08:07:32;25.40;;;19.03;;
10557;SDS011;5327;47.238;-2.304;2023-02-15T08:09:58;20.90;;;17.73;;
10557;SDS011;5327;47.238;-2.304;2023-02-15T08:12:27;23.73;;;17.20;;
10557;SDS011;5327;47.238;-2.304;2023-02-15T08:14:53;23.10;;;18.37;;
10557;SDS011;5327;47.238;-2.304;2023-02-15T08:17:21;26.40;;;17.80;;
10557;SDS011;5327;47.238;-2.304;2023-02-15T08:19:48;25.40;;;17.70;;
10557;SDS011;5327;47.238;-2.304;2023-02-15T08:22:14;24.10;;;16.50;;
10557;SDS011;5327;47.238;-2.304;2023-02-15T08:24:40;24.17;;;17.40;;
10557;SDS011;5327;47.238;-2.304;2023-02-15T08:27:07;20.03;;;15.57;;
10557;SDS011;5327;47.238;-2.304;2023-02-15T08:29:34;20.47;;;16.73;;
10557;SDS011;5327;47.238;-2.304;2023-02-15T08:32:05;20.23;;;17.10;;
10557;SDS011;5327;47.238;-2.304;2023-02-15T08:34:35;21.97;;;17.83;;
10557;SDS011;5327;47.238;-2.304;2023-02-15T08:37:01;20.20;;;15.83;;
10557;SDS011;5327;47.238;-2.304;2023-02-15T08:39:27;19.87;;;16.50;;
10557;SDS011;5327;47.238;-2.304;2023-02-15T08:41:53;21.73;;;15.70;;
10557;SDS011;5327;47.238;-2.304;2023-02-15T08:44:20;24.63;;;16.67;;
10557;SDS011;5327;47.238;-2.304;2023-02-15T08:46:47;19.07;;;15.00;;
10557;SDS011;5327;47.238;-2.304;2023-02-15T08:49:16;19.63;;;15.30;;
10557;SDS011;5327;47.238;-2.304;2023-02-15T08:51:42;26.27;;;15.83;;
10557;SDS011;5327;47.238;-2.304;2023-02-15T08:54:09;19.30;;;15.80;;
10557;SDS011;5327;47.238;-2.304;2023-02-15T08:56:37;22.67;;;17.63;;
10557;SDS011;5327;47.238;-2.304;2023-02-15T08:59:04;21.30;;;15.00;;
10557;SDS011;5327;47.238;-2.304;2023-02-15T09:01:31;27.23;;;16.87;;
10557;SDS011;5327;47.238;-2.304;2023-02-15T09:03:58;24.60;;;16.37;;
10557;SDS011;5327;47.238;-2.304;2023-02-15T09:06:25;24.83;;;18.23;;
10557;SDS011;5327;47.238;-2.304;2023-02-15T09:08:52;21.27;;;16.80;;
10557;SDS011;5327;47.238;-2.304;2023-02-15T09:11:19;23.67;;;17.00;;
10557;SDS011;5327;47.238;-2.304;2023-02-15T09:14:05;29.60;;;16.97;;
10557;SDS011;5327;47.238;-2.304;2023-02-15T09:16:35;21.73;;;16.60;;
10557;SDS011;5327;47.238;-2.304;2023-02-15T09:19:01;23.70;;;17.40;;
10557;SDS011;5327;47.238;-2.304;2023-02-15T09:21:29;22.70;;;16.77;;
10557;SDS011;5327;47.238;-2.304;2023-02-15T09:23:56;26.27;;;16.83;;
10557;SDS011;5327;47.238;-2.304;2023-02-15T09:26:25;21.87;;;16.63;;
10557;SDS011;5327;47.238;-2.304;2023-02-15T09:28:52;20.97;;;15.23;;
10557;SDS011;5327;47.238;-2.304;2023-02-15T09:31:21;24.97;;;17.33;;
10557;SDS011;5327;47.238;-2.304;2023-02-15T09:33:47;25.43;;;16.30;;
10557;SDS011;5327;47.238;-2.304;2023-02-15T09:36:35;25.27;;;17.30;;
10557;SDS011;5327;47.238;-2.304;2023-02-15T09:46:49;23.70;;;16.50;;
10557;SDS011;5327;47.238;-2.304;2023-02-15T10:05:58;19.30;;;15.37;;
10557;SDS011;5327;47.238;-2.304;2023-02-15T10:10:57;20.40;;;14.33;;
10557;SDS011;5327;47.238;-2.304;2023-02-15T10:13:54;16.23;;;13.53;;
10557;SDS011;5327;47.238;-2.304;2023-02-15T10:16:30;17.40;;;14.07;;
10557;SDS011;5327;47.238;-2.304;2023-02-15T10:21:46;14.30;;;12.80;;
10557;SDS011;5327;47.238;-2.304;2023-02-15T10:26:55;18.20;;;14.07;;
10557;SDS011;5327;47.238;-2.304;2023-02-15T10:30:01;18.47;;;14.70;;
10557;SDS011;5327;47.238;-2.304;2023-02-15T10:32:22;13.83;;;12.40;;
10557;SDS011;5327;47.238;-2.304;2023-02-15T10:34:54;16.30;;;13.57;;
10557;SDS011;5327;47.238;-2.304;2023-02-15T10:48:02;14.73;;;12.63;;
10557;SDS011;5327;47.238;-2.304;2023-02-15T10:50:48;15.00;;;13.60;;
10557;SDS011;5327;47.238;-2.304;2023-02-15T10:55:53;21.33;;;13.77;;
10557;SDS011;5327;47.238;-2.304;2023-02-15T11:06:11;17.83;;;13.23;;
10557;SDS011;5327;47.238;-2.304;2023-02-15T11:08:40;15.00;;;12.10;;
10557;SDS011;5327;47.238;-2.304;2023-02-15T11:11:09;16.43;;;13.37;;
10557;SDS011;5327;47.238;-2.304;2023-02-15T11:13:39;18.63;;;13.87;;
10557;SDS011;5327;47.238;-2.304;2023-02-15T11:16:14;15.47;;;12.53;;
10557;SDS011;5327;47.238;-2.304;2023-02-15T11:19:01;13.40;;;12.17;;
10557;SDS011;5327;47.238;-2.304;2023-02-15T11:21:31;14.40;;;13.00;;
10557;SDS011;5327;47.238;-2.304;2023-02-15T11:24:07;18.73;;;13.80;;
10557;SDS011;5327;47.238;-2.304;2023-02-15T11:26:37;15.97;;;13.30;;
10557;SDS011;5327;47.238;-2.304;2023-02-15T11:31:35;15.90;;;13.90;;
10557;SDS011;5327;47.238;-2.304;2023-02-15T11:34:04;23.30;;;14.47;;
10557;SDS011;5327;47.238;-2.304;2023-02-15T11:36:32;16.90;;;15.10;;
10557;SDS011;5327;47.238;-2.304;2023-02-15T11:39:01;20.97;;;14.60;;
10557;SDS011;5327;47.238;-2.304;2023-02-15T11:41:29;25.90;;;15.63;;
10557;SDS011;5327;47.238;-2.304;2023-02-15T11:46:33;24.70;;;15.23;;
10557;SDS011;5327;47.238;-2.304;2023-02-15T11:48:59;20.57;;;14.03;;
10557;SDS011;5327;47.238;-2.304;2023-02-15T11:51:25;18.70;;;15.03;;
10557;SDS011;5327;47.238;-2.304;2023-02-15T11:53:52;23.63;;;15.23;;
10557;SDS011;5327;47.238;-2.304;2023-02-15T11:56:20;19.90;;;14.50;;
10557;SDS011;5327;47.238;-2.304;2023-02-15T11:58:47;25.17;;;15.00;;
10557;SDS011;5327;47.238;-2.304;2023-02-15T12:04:04;21.87;;;13.93;;
10557;SDS011;5327;47.238;-2.304;2023-02-15T12:06:34;26.40;;;15.10;;
10557;SDS011;5327;47.238;-2.304;2023-02-15T12:09:10;21.83;;;13.90;;
10557;SDS011;5327;47.238;-2.304;2023-02-15T12:11:40;33.80;;;15.60;;
10557;SDS011;5327;47.238;-2.304;2023-02-15T12:14:07;23.07;;;14.23;;
10557;SDS011;5327;47.238;-2.304;2023-02-15T12:16:40;21.07;;;14.17;;
10557;SDS011;5327;47.238;-2.304;2023-02-15T12:19:09;24.37;;;14.00;;
10557;SDS011;5327;47.238;-2.304;2023-02-15T12:21:39;21.23;;;15.07;;
10557;SDS011;5327;47.238;-2.304;2023-02-15T12:24:21;19.33;;;13.90;;
10557;SDS011;5327;47.238;-2.304;2023-02-15T12:29:44;27.93;;;14.07;;
10557;SDS011;5327;47.238;-2.304;2023-02-15T12:32:18;19.87;;;14.20;;
10557;SDS011;5327;47.238;-2.304;2023-02-15T12:34:45;28.27;;;14.30;;
10557;SDS011;5327;47.238;-2.304;2023-02-15T12:37:23;21.17;;;13.67;;
10557;SDS011;5327;47.238;-2.304;2023-02-15T12:39:56;17.70;;;13.60;;
10557;SDS011;5327;47.238;-2.304;2023-02-15T12:42:23;24.03;;;12.83;;
10557;SDS011;5327;47.238;-2.304;2023-02-15T12:44:57;26.50;;;13.37;;
10557;SDS011;5327;47.238;-2.304;2023-02-15T12:47:23;17.23;;;13.00;;
10557;SDS011;5327;47.238;-2.304;2023-02-15T12:52:41;23.47;;;11.27;;
10557;SDS011;5327;47.238;-2.304;2023-02-15T12:55:27;18.30;;;12.13;;
10557;SDS011;5327;47.238;-2.304;2023-02-15T13:00:40;23.13;;;10.97;;
10557;SDS011;5327;47.238;-2.304;2023-02-15T13:03:14;16.33;;;10.27;;
10557;SDS011;5327;47.238;-2.304;2023-02-15T13:05:42;14.03;;;10.40;;
10557;SDS011;5327;47.238;-2.304;2023-02-15T13:10:37;16.83;;;11.00;;
10557;SDS011;5327;47.238;-2.304;2023-02-15T13:13:26;16.43;;;10.50;;
10557;SDS011;5327;47.238;-2.304;2023-02-15T13:15:52;30.20;;;12.43;;
10557;SDS011;5327;47.238;-2.304;2023-02-15T13:18:38;23.57;;;10.80;;
10557;SDS011;5327;47.238;-2.304;2023-02-15T13:21:14;19.40;;;11.57;;
10557;SDS011;5327;47.238;-2.304;2023-02-15T13:23:45;25.47;;;12.00;;
10557;SDS011;5327;47.238;-2.304;2023-02-15T13:26:14;19.50;;;11.43;;
10557;SDS011;5327;47.238;-2.304;2023-02-15T13:28:42;21.03;;;9.97;;
10557;SDS011;5327;47.238;-2.304;2023-02-15T13:31:14;21.70;;;10.97;;
10557;SDS011;5327;47.238;-2.304;2023-02-15T13:33:42;16.87;;;12.60;;
10557;SDS011;5327;47.238;-2.304;2023-02-15T13:41:21;21.67;;;11.10;;
10557;SDS011;5327;47.238;-2.304;2023-02-15T13:52:32;17.23;;;10.33;;
10557;SDS011;5327;47.238;-2.304;2023-02-15T13:57:16;25.27;;;11.37;;
10557;SDS011;5327;47.238;-2.304;2023-02-15T13:59:58;19.10;;;11.70;;
10557;SDS011;5327;47.238;-2.304;2023-02-15T14:13:05;19.93;;;11.30;;
10557;SDS011;5327;47.238;-2.304;2023-02-15T14:18:09;17.53;;;11.27;;
10557;SDS011;5327;47.238;-2.304;2023-02-15T14:25:54;23.77;;;11.33;;
10557;SDS011;5327;47.238;-2.304;2023-02-15T14:28:30;25.73;;;11.83;;
10557;SDS011;5327;47.238;-2.304;2023-02-15T14:30:58;16.07;;;10.97;;
10557;SDS011;5327;47.238;-2.304;2023-02-15T14:35:51;24.50;;;11.47;;
10557;SDS011;5327;47.238;-2.304;2023-02-15T14:46:19;20.30;;;11.27;;
10557;SDS011;5327;47.238;-2.304;2023-02-15T14:48:53;20.33;;;12.13;;
10557;SDS011;5327;47.238;-2.304;2023-02-15T14:54:08;17.53;;;11.20;;
10557;SDS011;5327;47.238;-2.304;2023-02-15T14:56:35;17.67;;;10.97;;
10557;SDS011;5327;47.238;-2.304;2023-02-15T14:59:16;25.37;;;12.53;;
10557;SDS011;5327;47.238;-2.304;2023-02-15T15:04:53;24.93;;;12.17;;
10557;SDS011;5327;47.238;-2.304;2023-02-15T15:07:25;19.67;;;10.87;;
10557;SDS011;5327;47.238;-2.304;2023-02-15T15:10:34;19.00;;;10.70;;
10557;SDS011;5327;47.238;-2.304;2023-02-15T15:12:53;12.60;;;10.10;;
10557;SDS011;5327;47.238;-2.304;2023-02-15T15:25:47;17.30;;;10.53;;
10557;SDS011;5327;47.238;-2.304;2023-02-15T15:31:20;21.30;;;13.10;;
10557;SDS011;5327;47.238;-2.304;2023-02-15T15:39:28;26.50;;;11.43;;
10557;SDS011;5327;47.238;-2.304;2023-02-15T15:50:12;23.93;;;11.97;;
10557;SDS011;5327;47.238;-2.304;2023-02-15T15:52:46;31.17;;;11.83;;
10557;SDS011;5327;47.238;-2.304;2023-02-15T15:55:17;27.23;;;13.50;;
10557;SDS011;5327;47.238;-2.304;2023-02-15T15:57:44;26.47;;;14.00;;
10557;SDS011;5327;47.238;-2.304;2023-02-15T16:02:52;25.10;;;12.37;;
10557;SDS011;5327;47.238;-2.304;2023-02-15T16:05:18;28.73;;;13.00;;
10557;SDS011;5327;47.238;-2.304;2023-02-15T16:07:44;21.03;;;12.53;;
10557;SDS011;5327;47.238;-2.304;2023-02-15T16:10:27;22.53;;;12.10;;
10557;SDS011;5327;47.238;-2.304;2023-02-15T16:12:53;22.30;;;11.73;;
10557;SDS011;5327;47.238;-2.304;2023-02-15T16:15:24;16.60;;;11.50;;
10557;SDS011;5327;47.238;-2.304;2023-02-15T16:17:54;22.10;;;11.60;;
10557;SDS011;5327;47.238;-2.304;2023-02-15T16:23:08;33.07;;;17.33;;
10557;SDS011;5327;47.238;-2.304;2023-02-15T16:28:11;28.13;;;20.10;;
10557;SDS011;5327;47.238;-2.304;2023-02-15T16:30:38;32.57;;;13.70;;
10557;SDS011;5327;47.238;-2.304;2023-02-15T16:33:08;29.20;;;14.97;;
10557;SDS011;5327;47.238;-2.304;2023-02-15T16:35:35;30.70;;;14.77;;
10557;SDS011;5327;47.238;-2.304;2023-02-15T16:38:02;23.93;;;12.80;;
10557;SDS011;5327;47.238;-2.304;2023-02-15T16:43:04;33.53;;;14.83;;
10557;SDS011;5327;47.238;-2.304;2023-02-15T16:45:32;32.37;;;13.93;;
10557;SDS011;5327;47.238;-2.304;2023-02-15T16:47:59;24.70;;;13.27;;
10557;SDS011;5327;47.238;-2.304;2023-02-15T16:50:31;35.17;;;14.50;;
10557;SDS011;5327;47.238;-2.304;2023-02-15T16:52:58;25.57;;;12.97;;
10557;SDS011;5327;47.238;-2.304;2023-02-15T16:55:26;23.00;;;13.90;;
10557;SDS011;5327;47.238;-2.304;2023-02-15T16:58:00;27.67;;;13.80;;
10557;SDS011;5327;47.238;-2.304;2023-02-15T17:00:28;26.50;;;13.17;;
10557;SDS011;5327;47.238;-2.304;2023-02-15T17:03:00;26.73;;;12.67;;
10557;SDS011;5327;47.238;-2.304;2023-02-15T17:05:46;21.93;;;13.40;;
10557;SDS011;5327;47.238;-2.304;2023-02-15T17:08:14;25.40;;;13.83;;
10557;SDS011;5327;47.238;-2.304;2023-02-15T17:10:41;24.30;;;11.77;;
10557;SDS011;5327;47.238;-2.304;2023-02-15T17:13:13;25.57;;;14.90;;
10557;SDS011;5327;47.238;-2.304;2023-02-15T17:15:40;25.13;;;13.53;;
10557;SDS011;5327;47.238;-2.304;2023-02-15T17:20:39;27.33;;;14.43;;
10557;SDS011;5327;47.238;-2.304;2023-02-15T17:23:07;23.23;;;13.03;;
10557;SDS011;5327;47.238;-2.304;2023-02-15T17:25:42;22.73;;;13.30;;
10557;SDS011;5327;47.238;-2.304;2023-02-15T17:28:15;29.57;;;14.53;;
10557;SDS011;5327;47.238;-2.304;2023-02-15T17:30:42;23.33;;;14.27;;
10557;SDS011;5327;47.238;-2.304;2023-02-15T17:33:21;28.17;;;16.57;;
10557;SDS011;5327;47.238;-2.304;2023-02-15T17:38:30;25.40;;;15.07;;
10557;SDS011;5327;47.238;-2.304;2023-02-15T17:40:56;29.97;;;16.37;;
10557;SDS011;5327;47.238;-2.304;2023-02-15T17:43:23;31.63;;;16.97;;
10557;SDS011;5327;47.238;-2.304;2023-02-15T17:45:51;26.80;;;15.87;;